Indianapolis, IN (46201)

3:58 PM EDT on August 29, 2016 (GMT -0400)
Christian Park | | Change Station

Elev 791 ft 39.77 °N, 86.10 °W | Updated 3 seconds ago

Scattered Clouds
Scattered Clouds
89.8 °F
Feels Like 96 °F
N
2.0
Wind Variable Wind from SSE
Gusts 3.0 mph

Today
High -- | Low -- °F
--% Chance of Precip.
Yesterday
High -- | Low -- °F
Precip. -- in
Pressure 30.16 in
Visibility 10.0 miles
Clouds Scattered Clouds 3500 ft
Scattered Clouds 25000 ft
Heat Index 96 °F
Dew Point 70 °F
Humidity 53%
Rainfall 0.00 in
Snow Depth Not available.
7:10 AM 8:19 PM
Waning Crescent, 7% visible
METAR KIND 291954Z 15003KT 10SM SCT035 SCT250 31/19 A3018 RMK AO2 SLP213 T03110194
Pressure 30.16 in
Visibility 10.0 miles
Clouds Scattered Clouds 3500 ft
Scattered Clouds 25000 ft
Heat Index 96 °F
Dew Point 70 °F
Humidity 53%
Rainfall 0.00 in
Snow Depth Not available.
7:10 AM 8:19 PM
Waning Crescent, 7% visible
METAR KIND 291954Z 15003KT 10SM SCT035 SCT250 31/19 A3018 RMK AO2 SLP213 T03110194

10-Day Weather Forecast

Almanac

Astronomy

Aug. 29, 2016 Rise Set
Actual Time
Civil Twilight
Nautical Twilight
Astronomical Twilight
Moon
Length of Visible Light
Length of Day
Tomorrow will be .
, % of the Moon is Illuminated

Today's Extremes

State Highs State Lows

Community

WunderPhotos

Upload Photos

1,935,642 photos uploaded!

WunderBlog® & News

Nearby

Air Quality

  Air Quality AQ Index Pollutant
Not available.

Snow Depth

Station Depth Elevation

Earthquake Activity

City Distance Mag. Time & Date
Minimum magnitude displayed is 2.5.

Coastal Water Temperatures

Place Temperature

Stations

Nearby Weather Stations

Station Location Temp. Windchill Dew Point Humidity Wind Precip. Elev Updated Type
                   

Watches & Warnings

There are currently no watches in effect.